createdAt,value
2022-10-31T00:01:27.659Z,1.23
2022-10-31T00:03:55.699Z,1.05
2022-10-31T00:06:23.929Z,1.27
2022-10-31T00:08:55.293Z,1.73
2022-10-31T00:11:26.268Z,1.60
2022-10-31T00:13:54.578Z,1.40
2022-10-31T00:16:25.079Z,1.42
2022-10-31T00:18:53.669Z,1.08
2022-10-31T00:21:22.275Z,1.25
2022-10-31T00:23:50.114Z,1.10
2022-10-31T00:26:18.276Z,1.42
2022-10-31T00:28:47.630Z,1.10
2022-10-31T00:31:15.947Z,1.20
2022-10-31T00:33:43.918Z,0.90
2022-10-31T00:36:15.569Z,1.27
2022-10-31T00:38:43.609Z,1.08
2022-10-31T00:41:11.703Z,1.45
2022-10-31T00:43:39.694Z,1.30
2022-10-31T00:46:08.837Z,1.08
2022-10-31T00:48:36.682Z,1.58
2022-10-31T00:51:04.686Z,1.20
2022-10-31T00:53:32.551Z,1.02
2022-10-31T00:56:00.400Z,1.25
2022-10-31T00:58:28.243Z,1.08
2022-10-31T01:00:56.886Z,1.10
2022-10-31T01:03:28.391Z,1.00
2022-10-31T01:06:01.071Z,1.00
2022-10-31T01:08:29.337Z,1.10
2022-10-31T01:11:02.339Z,1.20
2022-10-31T01:13:30.192Z,1.17
2022-10-31T01:15:59.047Z,1.50
2022-10-31T01:18:28.613Z,1.42
2022-10-31T01:21:01.330Z,1.17
2022-10-31T01:23:29.879Z,1.27
2022-10-31T01:26:06.548Z,1.23
2022-10-31T01:28:35.003Z,0.95
2022-10-31T01:31:04.034Z,1.13
2022-10-31T01:33:33.249Z,1.15
2022-10-31T01:36:01.238Z,1.55
2022-10-31T01:38:29.532Z,1.25
2022-10-31T01:40:57.397Z,0.98
2022-10-31T01:43:25.239Z,0.93
2022-10-31T01:45:56.081Z,1.58
2022-10-31T01:48:28.839Z,1.42
2022-10-31T01:50:58.095Z,1.20
2022-10-31T01:53:27.077Z,1.50
2022-10-31T01:55:55.297Z,1.02
2022-10-31T01:58:27.200Z,1.27
2022-10-31T02:01:01.821Z,0.80
2022-10-31T02:03:33.645Z,1.13
2022-10-31T02:06:05.204Z,1.17
2022-10-31T02:08:35.999Z,1.35
2022-10-31T02:11:03.844Z,1.85
2022-10-31T02:13:32.005Z,1.13
2022-10-31T02:16:00.944Z,1.48
2022-10-31T02:18:31.324Z,1.08
2022-10-31T02:21:13.418Z,1.05
2022-10-31T02:24:17.565Z,0.82
2022-10-31T02:27:14.452Z,0.70
2022-10-31T02:30:12.007Z,1.00
2022-10-31T02:32:53.453Z,1.00
2022-10-31T02:35:33.721Z,1.05
2022-10-31T02:38:07.183Z,0.60
2022-10-31T02:40:41.529Z,1.00
2022-10-31T02:45:52.331Z,1.00
2022-10-31T02:48:26.178Z,1.17
2022-10-31T02:50:57.938Z,1.10
2022-10-31T02:53:25.910Z,0.98
2022-10-31T02:56:00.114Z,1.23
2022-10-31T02:58:32.693Z,1.02
2022-10-31T03:01:32.547Z,1.15
2022-10-31T03:04:18.105Z,1.23
2022-10-31T03:06:51.516Z,1.08
2022-10-31T03:09:26.685Z,1.60
2022-10-31T03:12:00.173Z,1.40
2022-10-31T03:14:35.197Z,1.70
2022-10-31T03:17:08.017Z,1.50
2022-10-31T03:19:43.077Z,1.60
2022-10-31T03:22:19.400Z,0.93
2022-10-31T03:24:48.666Z,0.95
2022-10-31T03:27:20.667Z,1.80
2022-10-31T03:29:51.169Z,1.45
2022-10-31T03:32:23.026Z,1.30
2022-10-31T03:34:56.175Z,1.35
2022-10-31T03:37:26.737Z,0.90
2022-10-31T03:39:55.814Z,1.30
2022-10-31T03:42:26.775Z,1.45
2022-10-31T03:44:59.905Z,1.60
2022-10-31T03:47:28.259Z,1.20
2022-10-31T03:49:57.835Z,1.35
2022-10-31T03:52:29.901Z,1.30
2022-10-31T03:55:00.939Z,1.00
2022-10-31T03:57:34.838Z,0.98
2022-10-31T04:00:06.906Z,1.73
2022-10-31T04:02:40.045Z,1.55
2022-10-31T04:05:11.004Z,1.58
2022-10-31T04:07:43.281Z,1.27
2022-10-31T04:10:15.463Z,1.10
2022-10-31T04:12:47.532Z,1.33
2022-10-31T04:15:15.719Z,1.13
2022-10-31T04:17:46.100Z,1.55
2022-10-31T04:20:18.035Z,1.25
2022-10-31T04:22:45.906Z,1.40
2022-10-31T04:25:13.707Z,1.48
2022-10-31T04:27:41.546Z,1.80
2022-10-31T04:30:10.333Z,1.50
2022-10-31T04:32:38.135Z,1.23
2022-10-31T04:35:06.783Z,1.30
2022-10-31T04:37:36.018Z,1.10
2022-10-31T04:40:04.621Z,1.30
2022-10-31T04:42:33.052Z,1.55
2022-10-31T04:45:00.951Z,1.30
2022-10-31T04:47:28.725Z,1.60
2022-10-31T04:49:56.604Z,1.20
2022-10-31T04:52:24.437Z,1.15
2022-10-31T04:54:53.590Z,1.70
2022-10-31T04:57:21.408Z,1.25
2022-10-31T04:59:49.271Z,1.65
2022-10-31T05:02:17.247Z,1.55
2022-10-31T05:04:45.128Z,1.35
2022-10-31T05:07:12.971Z,1.50
2022-10-31T05:09:40.773Z,1.17
2022-10-31T05:12:09.963Z,1.00
2022-10-31T05:14:37.781Z,1.50
2022-10-31T05:17:05.621Z,1.42
2022-10-31T05:19:33.427Z,1.25
2022-10-31T05:22:01.271Z,1.58
2022-10-31T05:24:29.065Z,1.48
2022-10-31T05:26:56.940Z,1.67
2022-10-31T05:29:26.059Z,1.58
2022-10-31T05:31:53.894Z,1.42
2022-10-31T05:34:21.681Z,1.55
2022-10-31T05:36:49.523Z,1.85
2022-10-31T05:39:17.346Z,1.55
2022-10-31T05:41:45.129Z,1.45
2022-10-31T05:44:12.955Z,1.75
2022-10-31T05:46:42.093Z,0.98
2022-10-31T05:49:09.988Z,1.92
2022-10-31T05:51:37.822Z,1.83
2022-10-31T05:54:05.996Z,1.00
2022-10-31T05:56:33.818Z,1.10
2022-10-31T05:59:01.603Z,1.48
2022-10-31T06:01:29.493Z,1.50
2022-10-31T06:03:58.761Z,1.45
2022-10-31T06:06:26.528Z,1.48
2022-10-31T06:08:54.362Z,1.38
2022-10-31T06:11:22.265Z,1.40
2022-10-31T06:13:50.176Z,0.98
2022-10-31T06:16:18.044Z,1.38
2022-10-31T06:18:50.475Z,1.40
2022-10-31T06:21:27.884Z,1.25
2022-10-31T06:23:58.132Z,1.60
2022-10-31T06:26:26.406Z,1.80
2022-10-31T06:29:01.436Z,1.48
2022-10-31T06:31:32.495Z,1.00
2022-10-31T06:34:06.020Z,1.83
2022-10-31T06:36:35.231Z,1.20
2022-10-31T06:39:03.061Z,1.02
2022-10-31T06:41:30.848Z,1.35
2022-10-31T06:43:58.630Z,1.10
2022-10-31T06:46:26.522Z,1.17
2022-10-31T06:48:54.350Z,1.30
2022-10-31T06:51:22.141Z,1.25
2022-10-31T06:53:51.383Z,0.90
2022-10-31T06:56:21.963Z,1.30
2022-10-31T06:58:49.816Z,1.20
2022-10-31T07:01:17.728Z,1.50
2022-10-31T07:03:45.671Z,1.42
2022-10-31T07:06:13.437Z,1.20
2022-10-31T07:08:41.503Z,1.85
2022-10-31T07:11:10.676Z,1.27
2022-10-31T07:13:38.474Z,1.38
2022-10-31T07:16:08.167Z,1.30
2022-10-31T07:18:36.851Z,1.42
2022-10-31T07:21:05.228Z,1.10
2022-10-31T07:23:33.111Z,1.58
2022-10-31T07:26:01.389Z,1.33
2022-10-31T07:28:30.536Z,1.58
2022-10-31T07:30:59.487Z,0.90
2022-10-31T07:33:28.279Z,1.40
2022-10-31T07:35:56.109Z,1.33
2022-10-31T07:38:23.926Z,1.30
2022-10-31T07:40:53.640Z,0.98
2022-10-31T07:43:21.751Z,1.42
2022-10-31T07:45:54.951Z,0.98
2022-10-31T07:48:23.154Z,1.60
2022-10-31T07:50:51.044Z,0.98
2022-10-31T07:53:18.835Z,1.20
2022-10-31T07:55:46.646Z,1.55
2022-10-31T07:58:16.513Z,1.35
2022-10-31T08:00:46.493Z,1.33
2022-10-31T08:03:17.413Z,1.23
2022-10-31T08:05:46.830Z,1.42
2022-10-31T08:08:15.774Z,1.27
2022-10-31T08:10:44.216Z,1.58
2022-10-31T08:13:13.647Z,1.67
2022-10-31T08:15:42.825Z,1.20
2022-10-31T08:18:15.390Z,1.63
2022-10-31T08:20:44.332Z,1.55
2022-10-31T08:23:13.442Z,1.73
2022-10-31T08:25:42.774Z,1.30
2022-10-31T08:28:12.112Z,1.70
2022-10-31T08:30:41.101Z,1.27
2022-10-31T08:33:12.649Z,1.25
2022-10-31T08:35:42.333Z,1.48
2022-10-31T08:38:11.535Z,1.55
2022-10-31T08:40:40.150Z,1.20
2022-10-31T08:43:10.823Z,2.00
2022-10-31T08:45:38.728Z,1.88
2022-10-31T08:48:08.100Z,1.80
2022-10-31T08:50:37.290Z,1.85
2022-10-31T08:53:08.839Z,2.22
2022-10-31T08:55:37.570Z,1.58
2022-10-31T08:58:06.457Z,2.25
2022-10-31T09:00:34.642Z,1.25
2022-10-31T09:03:04.555Z,2.03
2022-10-31T09:05:33.917Z,2.33
2022-10-31T09:08:04.928Z,1.75
2022-10-31T09:10:36.966Z,1.85
2022-10-31T09:13:07.560Z,1.67
2022-10-31T09:15:36.437Z,2.05
2022-10-31T09:18:04.741Z,1.90
2022-10-31T09:20:33.759Z,1.65
2022-10-31T09:23:02.844Z,1.58
2022-10-31T09:25:31.232Z,2.03
2022-10-31T09:28:01.037Z,1.58
2022-10-31T09:30:30.905Z,2.05
2022-10-31T09:32:58.927Z,2.08
2022-10-31T09:35:27.186Z,2.40
2022-10-31T09:37:58.745Z,1.55
2022-10-31T09:40:33.069Z,1.85
2022-10-31T09:43:12.394Z,2.00
2022-10-31T09:45:47.814Z,2.20
2022-10-31T09:48:26.588Z,1.98
2022-10-31T09:50:58.357Z,1.65
2022-10-31T09:53:32.152Z,1.95
2022-10-31T09:56:02.815Z,2.10
2022-10-31T09:58:38.976Z,1.70
2022-10-31T10:01:08.763Z,1.52
2022-10-31T10:03:44.844Z,2.15
2022-10-31T16:19:54.812Z,1.45
2022-10-31T16:22:26.137Z,2.17
2022-10-31T16:24:59.248Z,1.48
2022-10-31T16:27:30.293Z,1.42
2022-10-31T16:30:02.290Z,1.67
2022-10-31T16:32:33.250Z,1.90
2022-10-31T16:35:25.178Z,1.60
2022-10-31T16:37:53.463Z,1.88
2022-10-31T16:40:22.394Z,1.38
2022-10-31T16:42:50.742Z,1.73
2022-10-31T16:45:21.406Z,1.92
2022-10-31T16:47:50.244Z,1.48
2022-10-31T16:50:22.385Z,1.75
2022-10-31T16:55:45.790Z,1.58
2022-10-31T16:58:19.402Z,1.65
2022-10-31T17:00:47.728Z,2.15
2022-10-31T17:03:15.553Z,1.83
2022-10-31T17:05:44.723Z,2.03
2022-10-31T17:08:13.303Z,1.63
2022-10-31T17:10:42.446Z,1.98
2022-10-31T17:13:15.637Z,1.63
2022-10-31T17:15:46.310Z,1.30
2022-10-31T17:18:15.080Z,1.67
2022-10-31T17:20:45.433Z,1.70
2022-10-31T17:23:14.879Z,1.55
2022-10-31T17:25:42.797Z,1.55
2022-10-31T17:28:13.564Z,2.05
2022-10-31T17:30:42.442Z,1.20
2022-10-31T17:33:12.871Z,1.70
2022-10-31T17:35:40.734Z,1.67
2022-10-31T17:38:10.137Z,1.55
2022-10-31T17:40:39.065Z,1.90
2022-10-31T17:43:07.359Z,1.67
2022-10-31T17:45:35.178Z,2.13
2022-10-31T17:48:03.166Z,1.80
2022-10-31T17:50:30.954Z,1.85
2022-10-31T17:52:59.798Z,3.22
2022-10-31T17:55:32.884Z,3.10
2022-10-31T17:58:05.475Z,2.65
2022-10-31T18:00:33.666Z,3.35
2022-10-31T18:03:03.374Z,3.20
2022-10-31T18:05:31.972Z,2.80
2022-10-31T18:08:03.807Z,2.50
2022-10-31T18:10:33.622Z,2.67
2022-10-31T18:13:01.684Z,3.05
2022-10-31T18:15:29.733Z,2.67
2022-10-31T18:17:57.742Z,2.65
2022-10-31T18:20:25.616Z,2.80
2022-10-31T18:22:53.547Z,3.40
2022-10-31T18:25:21.363Z,3.10
2022-10-31T18:27:50.562Z,3.33
2022-10-31T18:30:19.028Z,4.22
2022-10-31T18:32:49.767Z,3.47
2022-10-31T18:35:17.950Z,3.97
2022-10-31T18:37:46.043Z,3.72
2022-10-31T18:40:14.263Z,4.10
2022-10-31T21:51:59.730Z,3.70
2022-10-31T21:54:30.204Z,3.00
2022-10-31T21:56:59.622Z,3.38
2022-10-31T21:59:27.957Z,3.58
2022-10-31T22:01:58.031Z,3.45
2022-10-31T22:04:26.295Z,2.73
2022-10-31T22:06:54.397Z,3.08
2022-10-31T22:09:24.056Z,3.22
2022-10-31T22:11:51.864Z,3.67
2022-10-31T22:14:19.691Z,3.95
2022-10-31T22:16:47.527Z,3.03
2022-10-31T22:19:15.980Z,2.72
2022-10-31T22:21:48.794Z,2.92
2022-10-31T22:24:17.871Z,3.13
2022-10-31T22:26:50.092Z,3.33
2022-10-31T22:29:19.848Z,2.22
2022-10-31T22:31:51.919Z,2.85
2022-10-31T22:34:23.095Z,2.45
2022-10-31T22:36:50.989Z,1.88
2022-10-31T22:39:18.858Z,2.42
2022-10-31T22:41:48.065Z,2.33
2022-10-31T22:44:15.873Z,2.70
2022-10-31T22:46:43.786Z,2.42
2022-10-31T22:49:14.726Z,1.90
